Terminal Aerodrome Forecast
Issued by NWS Atlanta, GA

Current Version | Previous Version | Text Only | Print | Product List | Glossary On
Versions: 1 2 3 4 5 6 7 8 9 10 11 12 13 14 15 16 17 18 19 20
000
FTUS42 KFFC 031956 AAA
TAFCSG
TAF AMD
KCSG 031956Z 0320/0418 20006KT P6SM BKN025
     FM040000 19004KT P6SM BKN040
     FM040500 19005KT P6SM BKN025
     FM040700 20006KT 4SM BR BKN007
     FM041600 21006KT P6SM BKN015=

USA.gov is the U.S. government's official web portal to all federal, state and local government web resources and services.